sensor_id;sensor_type;location;lat;lon;timestamp;P1;durP1;ratioP1;P2;durP2;ratioP2
17967;SDS011;9109;48.050;11.696;2024-02-21T00:02:34;4.80;;;1.73;;
17967;SDS011;9109;48.050;11.696;2024-02-21T00:05:40;2.57;;;1.60;;
17967;SDS011;9109;48.050;11.696;2024-02-21T00:08:43;6.90;;;1.87;;
17967;SDS011;9109;48.050;11.696;2024-02-21T00:11:45;7.60;;;2.10;;
17967;SDS011;9109;48.050;11.696;2024-02-21T00:14:47;5.13;;;1.83;;
17967;SDS011;9109;48.050;11.696;2024-02-21T00:17:50;6.00;;;2.83;;
17967;SDS011;9109;48.050;11.696;2024-02-21T00:20:53;2.63;;;1.63;;
17967;SDS011;9109;48.050;11.696;2024-02-21T00:23:55;4.37;;;2.00;;
17967;SDS011;9109;48.050;11.696;2024-02-21T00:26:58;6.37;;;1.80;;
17967;SDS011;9109;48.050;11.696;2024-02-21T00:30:00;6.40;;;1.87;;
17967;SDS011;9109;48.050;11.696;2024-02-21T00:33:03;3.80;;;1.60;;
17967;SDS011;9109;48.050;11.696;2024-02-21T00:36:07;3.50;;;1.70;;
17967;SDS011;9109;48.050;11.696;2024-02-21T00:39:09;6.73;;;1.70;;
17967;SDS011;9109;48.050;11.696;2024-02-21T00:42:11;3.60;;;1.60;;
17967;SDS011;9109;48.050;11.696;2024-02-21T00:45:14;6.27;;;1.70;;
17967;SDS011;9109;48.050;11.696;2024-02-21T00:48:16;4.37;;;1.47;;
17967;SDS011;9109;48.050;11.696;2024-02-21T00:51:20;3.47;;;1.60;;
17967;SDS011;9109;48.050;11.696;2024-02-21T00:54:24;4.53;;;1.40;;
17967;SDS011;9109;48.050;11.696;2024-02-21T00:57:26;4.53;;;1.40;;
17967;SDS011;9109;48.050;11.696;2024-02-21T01:00:29;3.30;;;1.20;;
17967;SDS011;9109;48.050;11.696;2024-02-21T01:03:32;5.40;;;1.40;;
17967;SDS011;9109;48.050;11.696;2024-02-21T01:06:35;2.43;;;1.43;;
17967;SDS011;9109;48.050;11.696;2024-02-21T01:09:37;4.50;;;1.43;;
17967;SDS011;9109;48.050;11.696;2024-02-21T01:12:41;5.37;;;1.40;;
17967;SDS011;9109;48.050;11.696;2024-02-21T01:15:43;4.57;;;1.47;;
17967;SDS011;9109;48.050;11.696;2024-02-21T01:18:46;3.27;;;1.33;;
17967;SDS011;9109;48.050;11.696;2024-02-21T01:21:50;2.57;;;1.40;;
17967;SDS011;9109;48.050;11.696;2024-02-21T01:24:52;3.17;;;1.17;;
17967;SDS011;9109;48.050;11.696;2024-02-21T01:27:54;4.33;;;1.20;;
17967;SDS011;9109;48.050;11.696;2024-02-21T01:30:57;3.77;;;1.37;;
17967;SDS011;9109;48.050;11.696;2024-02-21T01:33:59;1.43;;;1.17;;
17967;SDS011;9109;48.050;11.696;2024-02-21T01:37:03;4.80;;;1.53;;
17967;SDS011;9109;48.050;11.696;2024-02-21T01:40:11;3.60;;;1.27;;
17967;SDS011;9109;48.050;11.696;2024-02-21T01:43:15;1.80;;;0.97;;
17967;SDS011;9109;48.050;11.696;2024-02-21T01:46:18;5.27;;;1.20;;
17967;SDS011;9109;48.050;11.696;2024-02-21T01:49:20;3.73;;;0.90;;
17967;SDS011;9109;48.050;11.696;2024-02-21T01:52:25;4.97;;;1.23;;
17967;SDS011;9109;48.050;11.696;2024-02-21T01:55:27;1.47;;;0.97;;
17967;SDS011;9109;48.050;11.696;2024-02-21T01:58:30;5.37;;;1.17;;
17967;SDS011;9109;48.050;11.696;2024-02-21T02:01:32;1.63;;;1.07;;
17967;SDS011;9109;48.050;11.696;2024-02-21T02:04:35;5.53;;;1.40;;
17967;SDS011;9109;48.050;11.696;2024-02-21T02:07:39;3.53;;;1.40;;
17967;SDS011;9109;48.050;11.696;2024-02-21T02:10:41;2.57;;;1.20;;
17967;SDS011;9109;48.050;11.696;2024-02-21T02:13:44;7.37;;;1.20;;
17967;SDS011;9109;48.050;11.696;2024-02-21T02:16:46;1.83;;;1.00;;
17967;SDS011;9109;48.050;11.696;2024-02-21T02:19:49;4.00;;;1.20;;
17967;SDS011;9109;48.050;11.696;2024-02-21T02:22:53;1.83;;;1.00;;
17967;SDS011;9109;48.050;11.696;2024-02-21T02:25:57;2.13;;;1.50;;
17967;SDS011;9109;48.050;11.696;2024-02-21T02:29:01;5.10;;;1.30;;
17967;SDS011;9109;48.050;11.696;2024-02-21T02:32:03;1.73;;;1.13;;
17967;SDS011;9109;48.050;11.696;2024-02-21T02:35:06;2.27;;;0.80;;
17967;SDS011;9109;48.050;11.696;2024-02-21T02:38:08;2.53;;;1.20;;
17967;SDS011;9109;48.050;11.696;2024-02-21T02:41:13;2.90;;;1.00;;
17967;SDS011;9109;48.050;11.696;2024-02-21T02:44:15;1.40;;;0.93;;
17967;SDS011;9109;48.050;11.696;2024-02-21T02:47:18;1.77;;;0.90;;
17967;SDS011;9109;48.050;11.696;2024-02-21T02:50:20;1.90;;;0.93;;
17967;SDS011;9109;48.050;11.696;2024-02-21T02:53:23;3.57;;;1.40;;
17967;SDS011;9109;48.050;11.696;2024-02-21T02:56:26;2.30;;;1.17;;
17967;SDS011;9109;48.050;11.696;2024-02-21T02:59:31;3.37;;;1.40;;
17967;SDS011;9109;48.050;11.696;2024-02-21T03:02:34;3.50;;;1.07;;
17967;SDS011;9109;48.050;11.696;2024-02-21T03:05:36;2.60;;;1.00;;
17967;SDS011;9109;48.050;11.696;2024-02-21T03:08:39;2.47;;;1.03;;
17967;SDS011;9109;48.050;11.696;2024-02-21T03:11:44;1.80;;;0.87;;
17967;SDS011;9109;48.050;11.696;2024-02-21T03:14:46;1.10;;;1.00;;
17967;SDS011;9109;48.050;11.696;2024-02-21T03:17:49;1.10;;;0.87;;
17967;SDS011;9109;48.050;11.696;2024-02-21T03:20:52;2.83;;;1.23;;
17967;SDS011;9109;48.050;11.696;2024-02-21T03:23:54;1.60;;;1.07;;
17967;SDS011;9109;48.050;11.696;2024-02-21T03:26:58;1.60;;;0.93;;
17967;SDS011;9109;48.050;11.696;2024-02-21T03:30:01;3.13;;;1.10;;
17967;SDS011;9109;48.050;11.696;2024-02-21T03:33:04;3.53;;;1.50;;
17967;SDS011;9109;48.050;11.696;2024-02-21T03:36:07;2.47;;;0.80;;
17967;SDS011;9109;48.050;11.696;2024-02-21T03:39:15;0.93;;;0.90;;
17967;SDS011;9109;48.050;11.696;2024-02-21T03:42:19;5.47;;;1.10;;
17967;SDS011;9109;48.050;11.696;2024-02-21T03:45:21;3.10;;;0.90;;
17967;SDS011;9109;48.050;11.696;2024-02-21T03:48:24;4.73;;;0.83;;
17967;SDS011;9109;48.050;11.696;2024-02-21T03:51:26;3.33;;;0.90;;
17967;SDS011;9109;48.050;11.696;2024-02-21T03:54:28;0.73;;;0.63;;
17967;SDS011;9109;48.050;11.696;2024-02-21T03:57:32;2.90;;;1.30;;
17967;SDS011;9109;48.050;11.696;2024-02-21T04:00:35;4.73;;;0.97;;
17967;SDS011;9109;48.050;11.696;2024-02-21T04:03:37;2.17;;;0.97;;
17967;SDS011;9109;48.050;11.696;2024-02-21T04:06:45;1.07;;;0.97;;
17967;SDS011;9109;48.050;11.696;2024-02-21T04:09:48;5.20;;;0.90;;
17967;SDS011;9109;48.050;11.696;2024-02-21T04:12:52;2.00;;;0.97;;
17967;SDS011;9109;48.050;11.696;2024-02-21T04:15:54;1.70;;;0.93;;
17967;SDS011;9109;48.050;11.696;2024-02-21T04:18:57;2.07;;;0.93;;
17967;SDS011;9109;48.050;11.696;2024-02-21T04:21:59;1.47;;;0.90;;
17967;SDS011;9109;48.050;11.696;2024-02-21T04:25:01;0.87;;;0.77;;
17967;SDS011;9109;48.050;11.696;2024-02-21T04:28:05;2.90;;;1.20;;
17967;SDS011;9109;48.050;11.696;2024-02-21T04:31:08;3.07;;;1.20;;
17967;SDS011;9109;48.050;11.696;2024-02-21T04:34:10;6.80;;;0.90;;
17967;SDS011;9109;48.050;11.696;2024-02-21T04:37:12;5.07;;;1.00;;
17967;SDS011;9109;48.050;11.696;2024-02-21T04:40:16;1.43;;;1.00;;
17967;SDS011;9109;48.050;11.696;2024-02-21T04:43:21;1.00;;;0.80;;
17967;SDS011;9109;48.050;11.696;2024-02-21T04:46:23;2.40;;;1.07;;
17967;SDS011;9109;48.050;11.696;2024-02-21T04:49:26;5.67;;;1.07;;
17967;SDS011;9109;48.050;11.696;2024-02-21T04:52:28;2.90;;;1.00;;
17967;SDS011;9109;48.050;11.696;2024-02-21T04:55:31;1.07;;;0.80;;
17967;SDS011;9109;48.050;11.696;2024-02-21T04:58:37;0.87;;;0.80;;
17967;SDS011;9109;48.050;11.696;2024-02-21T05:01:40;4.70;;;0.90;;
17967;SDS011;9109;48.050;11.696;2024-02-21T05:04:42;1.53;;;0.90;;
17967;SDS011;9109;48.050;11.696;2024-02-21T05:07:45;1.67;;;0.80;;
17967;SDS011;9109;48.050;11.696;2024-02-21T05:10:47;1.43;;;1.20;;
17967;SDS011;9109;48.050;11.696;2024-02-21T05:13:51;2.30;;;0.90;;
17967;SDS011;9109;48.050;11.696;2024-02-21T05:16:54;2.27;;;0.90;;
17967;SDS011;9109;48.050;11.696;2024-02-21T05:19:56;6.37;;;1.00;;
17967;SDS011;9109;48.050;11.696;2024-02-21T05:22:59;1.07;;;0.93;;
17967;SDS011;9109;48.050;11.696;2024-02-21T05:26:01;6.40;;;0.83;;
17967;SDS011;9109;48.050;11.696;2024-02-21T05:29:05;1.67;;;0.90;;
17967;SDS011;9109;48.050;11.696;2024-02-21T05:32:09;2.40;;;0.80;;
17967;SDS011;9109;48.050;11.696;2024-02-21T05:35:12;4.50;;;1.00;;
17967;SDS011;9109;48.050;11.696;2024-02-21T05:38:15;2.83;;;0.80;;
17967;SDS011;9109;48.050;11.696;2024-02-21T05:41:17;1.83;;;0.80;;
17967;SDS011;9109;48.050;11.696;2024-02-21T05:44:21;1.83;;;0.97;;
17967;SDS011;9109;48.050;11.696;2024-02-21T05:47:24;3.33;;;0.90;;
17967;SDS011;9109;48.050;11.696;2024-02-21T05:50:26;4.10;;;1.03;;
17967;SDS011;9109;48.050;11.696;2024-02-21T05:53:28;1.67;;;0.80;;
17967;SDS011;9109;48.050;11.696;2024-02-21T05:56:30;0.73;;;0.70;;
17967;SDS011;9109;48.050;11.696;2024-02-21T05:59:34;2.67;;;0.90;;
17967;SDS011;9109;48.050;11.696;2024-02-21T06:02:41;1.97;;;1.00;;
17967;SDS011;9109;48.050;11.696;2024-02-21T06:09:02;1.43;;;0.90;;
17967;SDS011;9109;48.050;11.696;2024-02-21T06:12:05;1.17;;;0.67;;
17967;SDS011;9109;48.050;11.696;2024-02-21T06:15:09;1.00;;;0.70;;
17967;SDS011;9109;48.050;11.696;2024-02-21T06:18:11;0.73;;;0.70;;
17967;SDS011;9109;48.050;11.696;2024-02-21T06:21:14;0.70;;;0.70;;
17967;SDS011;9109;48.050;11.696;2024-02-21T06:24:16;1.30;;;0.80;;
17967;SDS011;9109;48.050;11.696;2024-02-21T06:27:19;0.70;;;0.70;;
17967;SDS011;9109;48.050;11.696;2024-02-21T06:30:22;2.13;;;0.80;;
17967;SDS011;9109;48.050;11.696;2024-02-21T06:33:26;1.30;;;0.90;;
17967;SDS011;9109;48.050;11.696;2024-02-21T06:36:28;0.90;;;0.83;;
17967;SDS011;9109;48.050;11.696;2024-02-21T06:39:31;4.27;;;0.90;;
17967;SDS011;9109;48.050;11.696;2024-02-21T06:42:34;3.23;;;1.23;;
17967;SDS011;9109;48.050;11.696;2024-02-21T06:45:38;3.17;;;1.10;;
17967;SDS011;9109;48.050;11.696;2024-02-21T06:48:42;2.10;;;0.90;;
17967;SDS011;9109;48.050;11.696;2024-02-21T06:51:47;10.90;;;1.10;;
17967;SDS011;9109;48.050;11.696;2024-02-21T06:54:50;1.77;;;0.90;;
17967;SDS011;9109;48.050;11.696;2024-02-21T06:57:52;4.07;;;1.10;;
17967;SDS011;9109;48.050;11.696;2024-02-21T07:00:59;1.73;;;0.80;;
17967;SDS011;9109;48.050;11.696;2024-02-21T07:04:02;10.40;;;1.53;;
17967;SDS011;9109;48.050;11.696;2024-02-21T07:07:29;8.87;;;1.03;;
17967;SDS011;9109;48.050;11.696;2024-02-21T07:10:32;8.87;;;1.27;;
17967;SDS011;9109;48.050;11.696;2024-02-21T07:13:35;4.37;;;1.30;;
17967;SDS011;9109;48.050;11.696;2024-02-21T07:16:38;11.30;;;1.27;;
17967;SDS011;9109;48.050;11.696;2024-02-21T07:19:41;4.53;;;1.60;;
17967;SDS011;9109;48.050;11.696;2024-02-21T07:22:44;3.13;;;1.40;;
17967;SDS011;9109;48.050;11.696;2024-02-21T07:25:46;2.03;;;1.00;;
17967;SDS011;9109;48.050;11.696;2024-02-21T07:28:49;1.10;;;0.80;;
17967;SDS011;9109;48.050;11.696;2024-02-21T07:31:52;1.57;;;1.00;;
17967;SDS011;9109;48.050;11.696;2024-02-21T07:34:55;2.00;;;0.93;;
17967;SDS011;9109;48.050;11.696;2024-02-21T07:37:57;1.97;;;0.90;;
17967;SDS011;9109;48.050;11.696;2024-02-21T07:41:00;10.07;;;1.40;;
17967;SDS011;9109;48.050;11.696;2024-02-21T07:44:04;17.40;;;1.83;;
17967;SDS011;9109;48.050;11.696;2024-02-21T07:47:08;10.67;;;1.90;;
17967;SDS011;9109;48.050;11.696;2024-02-21T07:50:10;13.33;;;1.63;;
17967;SDS011;9109;48.050;11.696;2024-02-21T07:53:14;20.00;;;1.80;;
17967;SDS011;9109;48.050;11.696;2024-02-21T07:56:17;6.23;;;1.13;;
17967;SDS011;9109;48.050;11.696;2024-02-21T07:59:19;6.07;;;1.40;;
17967;SDS011;9109;48.050;11.696;2024-02-21T08:02:23;1.97;;;1.07;;
17967;SDS011;9109;48.050;11.696;2024-02-21T08:05:26;0.90;;;0.73;;
17967;SDS011;9109;48.050;11.696;2024-02-21T08:08:30;3.27;;;0.90;;
17967;SDS011;9109;48.050;11.696;2024-02-21T08:11:32;3.00;;;0.90;;
17967;SDS011;9109;48.050;11.696;2024-02-21T08:14:35;1.30;;;0.77;;
17967;SDS011;9109;48.050;11.696;2024-02-21T08:17:39;6.00;;;0.80;;
17967;SDS011;9109;48.050;11.696;2024-02-21T08:20:41;0.83;;;0.77;;
17967;SDS011;9109;48.050;11.696;2024-02-21T08:23:43;3.70;;;0.87;;
17967;SDS011;9109;48.050;11.696;2024-02-21T08:26:46;1.30;;;1.00;;
17967;SDS011;9109;48.050;11.696;2024-02-21T08:29:48;1.77;;;0.80;;
17967;SDS011;9109;48.050;11.696;2024-02-21T08:32:52;1.30;;;0.90;;
17967;SDS011;9109;48.050;11.696;2024-02-21T08:35:55;2.70;;;0.90;;
17967;SDS011;9109;48.050;11.696;2024-02-21T08:38:57;4.00;;;0.97;;
17967;SDS011;9109;48.050;11.696;2024-02-21T08:42:00;1.70;;;1.00;;
17967;SDS011;9109;48.050;11.696;2024-02-21T08:45:02;1.77;;;0.83;;
17967;SDS011;9109;48.050;11.696;2024-02-21T08:48:07;1.87;;;0.87;;
17967;SDS011;9109;48.050;11.696;2024-02-21T08:51:09;0.97;;;0.63;;
17967;SDS011;9109;48.050;11.696;2024-02-21T08:54:12;2.73;;;0.90;;
17967;SDS011;9109;48.050;11.696;2024-02-21T08:57:14;1.17;;;0.87;;
17967;SDS011;9109;48.050;11.696;2024-02-21T09:00:18;1.73;;;1.10;;
17967;SDS011;9109;48.050;11.696;2024-02-21T09:03:25;1.20;;;0.80;;
17967;SDS011;9109;48.050;11.696;2024-02-21T09:06:28;3.60;;;0.83;;
17967;SDS011;9109;48.050;11.696;2024-02-21T09:09:30;1.33;;;0.70;;
17967;SDS011;9109;48.050;11.696;2024-02-21T09:12:33;2.33;;;0.97;;
17967;SDS011;9109;48.050;11.696;2024-02-21T09:15:35;1.77;;;0.53;;
17967;SDS011;9109;48.050;11.696;2024-02-21T09:18:39;0.97;;;0.70;;
17967;SDS011;9109;48.050;11.696;2024-02-21T09:21:42;2.73;;;0.90;;
17967;SDS011;9109;48.050;11.696;2024-02-21T09:24:44;2.30;;;0.93;;
17967;SDS011;9109;48.050;11.696;2024-02-21T09:27:47;1.53;;;0.80;;
17967;SDS011;9109;48.050;11.696;2024-02-21T09:30:52;1.97;;;1.03;;
17967;SDS011;9109;48.050;11.696;2024-02-21T09:33:55;6.50;;;1.10;;
17967;SDS011;9109;48.050;11.696;2024-02-21T09:36:59;5.80;;;0.70;;
17967;SDS011;9109;48.050;11.696;2024-02-21T09:40:02;1.80;;;0.80;;
17967;SDS011;9109;48.050;11.696;2024-02-21T09:43:04;2.30;;;0.87;;
17967;SDS011;9109;48.050;11.696;2024-02-21T09:46:07;1.30;;;0.70;;
17967;SDS011;9109;48.050;11.696;2024-02-21T09:49:17;2.50;;;0.70;;
17967;SDS011;9109;48.050;11.696;2024-02-21T09:52:23;1.10;;;0.70;;
17967;SDS011;9109;48.050;11.696;2024-02-21T09:55:26;1.43;;;0.73;;
17967;SDS011;9109;48.050;11.696;2024-02-21T09:58:29;0.70;;;0.70;;
17967;SDS011;9109;48.050;11.696;2024-02-21T10:01:32;0.97;;;0.87;;
17967;SDS011;9109;48.050;11.696;2024-02-21T10:04:35;0.93;;;0.77;;
17967;SDS011;9109;48.050;11.696;2024-02-21T10:07:38;1.27;;;0.80;;
17967;SDS011;9109;48.050;11.696;2024-02-21T10:10:40;1.33;;;0.77;;
17967;SDS011;9109;48.050;11.696;2024-02-21T10:13:44;2.70;;;0.77;;
17967;SDS011;9109;48.050;11.696;2024-02-21T10:16:47;1.80;;;0.80;;
17967;SDS011;9109;48.050;11.696;2024-02-21T10:19:51;0.67;;;0.67;;
17967;SDS011;9109;48.050;11.696;2024-02-21T10:23:00;1.43;;;0.60;;
17967;SDS011;9109;48.050;11.696;2024-02-21T10:26:06;3.47;;;0.80;;
17967;SDS011;9109;48.050;11.696;2024-02-21T10:29:09;5.57;;;0.80;;
17967;SDS011;9109;48.050;11.696;2024-02-21T10:32:12;1.17;;;0.70;;
17967;SDS011;9109;48.050;11.696;2024-02-21T10:35:24;0.87;;;0.60;;
17967;SDS011;9109;48.050;11.696;2024-02-21T10:38:27;4.80;;;0.60;;
17967;SDS011;9109;48.050;11.696;2024-02-21T10:41:30;1.07;;;0.70;;
17967;SDS011;9109;48.050;11.696;2024-02-21T10:44:34;0.97;;;0.60;;
17967;SDS011;9109;48.050;11.696;2024-02-21T10:47:39;1.90;;;0.70;;
17967;SDS011;9109;48.050;11.696;2024-02-21T10:50:47;0.53;;;0.53;;
17967;SDS011;9109;48.050;11.696;2024-02-21T10:53:55;0.60;;;0.60;;
17967;SDS011;9109;48.050;11.696;2024-02-21T10:57:00;1.00;;;0.60;;
17967;SDS011;9109;48.050;11.696;2024-02-21T11:00:03;1.23;;;0.60;;
17967;SDS011;9109;48.050;11.696;2024-02-21T11:03:08;0.60;;;0.60;;
17967;SDS011;9109;48.050;11.696;2024-02-21T11:06:12;1.07;;;0.70;;
17967;SDS011;9109;48.050;11.696;2024-02-21T11:09:15;0.60;;;0.60;;
17967;SDS011;9109;48.050;11.696;2024-02-21T11:12:19;2.70;;;0.70;;
17967;SDS011;9109;48.050;11.696;2024-02-21T11:15:25;0.67;;;0.50;;
17967;SDS011;9109;48.050;11.696;2024-02-21T11:18:27;1.80;;;0.60;;
17967;SDS011;9109;48.050;11.696;2024-02-21T11:21:37;1.03;;;0.67;;
17967;SDS011;9109;48.050;11.696;2024-02-21T11:24:41;1.30;;;0.50;;
17967;SDS011;9109;48.050;11.696;2024-02-21T11:27:45;3.50;;;0.50;;
17967;SDS011;9109;48.050;11.696;2024-02-21T11:30:47;1.40;;;0.60;;
17967;SDS011;9109;48.050;11.696;2024-02-21T11:33:51;2.20;;;0.60;;
17967;SDS011;9109;48.050;11.696;2024-02-21T11:36:55;0.97;;;0.50;;
17967;SDS011;9109;48.050;11.696;2024-02-21T11:39:57;0.53;;;0.40;;
17967;SDS011;9109;48.050;11.696;2024-02-21T11:43:00;2.73;;;0.60;;
17967;SDS011;9109;48.050;11.696;2024-02-21T11:46:02;3.60;;;0.50;;
17967;SDS011;9109;48.050;11.696;2024-02-21T11:49:05;1.90;;;0.50;;
17967;SDS011;9109;48.050;11.696;2024-02-21T11:52:09;2.10;;;0.87;;
17967;SDS011;9109;48.050;11.696;2024-02-21T11:55:11;0.40;;;0.40;;
17967;SDS011;9109;48.050;11.696;2024-02-21T11:58:14;0.70;;;0.40;;
17967;SDS011;9109;48.050;11.696;2024-02-21T12:01:17;0.50;;;0.50;;
17967;SDS011;9109;48.050;11.696;2024-02-21T12:04:19;0.40;;;0.40;;
17967;SDS011;9109;48.050;11.696;2024-02-21T12:07:25;1.03;;;0.60;;
17967;SDS011;9109;48.050;11.696;2024-02-21T12:10:30;0.50;;;0.40;;
17967;SDS011;9109;48.050;11.696;2024-02-21T12:13:33;0.53;;;0.40;;
17967;SDS011;9109;48.050;11.696;2024-02-21T12:16:36;1.33;;;0.50;;
17967;SDS011;9109;48.050;11.696;2024-02-21T12:19:38;1.17;;;0.50;;
17967;SDS011;9109;48.050;11.696;2024-02-21T12:22:42;0.53;;;0.43;;
17967;SDS011;9109;48.050;11.696;2024-02-21T12:25:45;0.83;;;0.50;;
17967;SDS011;9109;48.050;11.696;2024-02-21T12:28:47;0.70;;;0.60;;
17967;SDS011;9109;48.050;11.696;2024-02-21T12:31:49;0.50;;;0.50;;
17967;SDS011;9109;48.050;11.696;2024-02-21T12:34:52;7.27;;;0.80;;
17967;SDS011;9109;48.050;11.696;2024-02-21T12:37:55;0.73;;;0.57;;
17967;SDS011;9109;48.050;11.696;2024-02-21T12:40:58;0.50;;;0.50;;
17967;SDS011;9109;48.050;11.696;2024-02-21T12:44:00;2.08;;;0.70;;
17967;SDS011;9109;48.050;11.696;2024-02-21T12:47:03;0.50;;;0.50;;
17967;SDS011;9109;48.050;11.696;2024-02-21T12:50:06;0.50;;;0.50;;
17967;SDS011;9109;48.050;11.696;2024-02-21T12:53:10;0.65;;;0.60;;
17967;SDS011;9109;48.050;11.696;2024-02-21T12:56:12;0.50;;;0.50;;
17967;SDS011;9109;48.050;11.696;2024-02-21T12:59:14;1.20;;;0.70;;
17967;SDS011;9109;48.050;11.696;2024-02-21T13:02:17;0.50;;;0.50;;
17967;SDS011;9109;48.050;11.696;2024-02-21T13:05:20;1.40;;;0.57;;
17967;SDS011;9109;48.050;11.696;2024-02-21T13:08:24;0.45;;;0.45;;
17967;SDS011;9109;48.050;11.696;2024-02-21T13:11:26;0.50;;;0.47;;
17967;SDS011;9109;48.050;11.696;2024-02-21T13:14:31;1.70;;;0.60;;
17967;SDS011;9109;48.050;11.696;2024-02-21T13:17:35;0.50;;;0.50;;
17967;SDS011;9109;48.050;11.696;2024-02-21T13:20:37;1.25;;;0.63;;
17967;SDS011;9109;48.050;11.696;2024-02-21T13:23:41;4.15;;;0.50;;
17967;SDS011;9109;48.050;11.696;2024-02-21T13:26:44;1.90;;;0.77;;
17967;SDS011;9109;48.050;11.696;2024-02-21T13:29:46;0.57;;;0.50;;
17967;SDS011;9109;48.050;11.696;2024-02-21T13:32:49;0.50;;;0.50;;
17967;SDS011;9109;48.050;11.696;2024-02-21T13:35:52;1.08;;;0.60;;
17967;SDS011;9109;48.050;11.696;2024-02-21T13:38:56;0.40;;;0.40;;
17967;SDS011;9109;48.050;11.696;2024-02-21T13:41:58;0.85;;;0.60;;
17967;SDS011;9109;48.050;11.696;2024-02-21T13:45:00;1.65;;;0.50;;
17967;SDS011;9109;48.050;11.696;2024-02-21T13:48:03;2.10;;;0.60;;
17967;SDS011;9109;48.050;11.696;2024-02-21T13:51:07;0.60;;;0.60;;
17967;SDS011;9109;48.050;11.696;2024-02-21T13:54:11;0.63;;;0.63;;
17967;SDS011;9109;48.050;11.696;2024-02-21T13:57:17;0.80;;;0.60;;
17967;SDS011;9109;48.050;11.696;2024-02-21T14:00:19;0.52;;;0.50;;
17967;SDS011;9109;48.050;11.696;2024-02-21T14:03:22;2.47;;;0.50;;
17967;SDS011;9109;48.050;11.696;2024-02-21T14:06:25;0.60;;;0.60;;
17967;SDS011;9109;48.050;11.696;2024-02-21T14:09:29;1.35;;;0.45;;
17967;SDS011;9109;48.050;11.696;2024-02-21T14:12:32;1.05;;;0.60;;
17967;SDS011;9109;48.050;11.696;2024-02-21T14:15:37;0.60;;;0.60;;
17967;SDS011;9109;48.050;11.696;2024-02-21T14:18:41;4.75;;;0.68;;
17967;SDS011;9109;48.050;11.696;2024-02-21T14:21:43;0.50;;;0.50;;
17967;SDS011;9109;48.050;11.696;2024-02-21T14:24:47;1.00;;;0.67;;
17967;SDS011;9109;48.050;11.696;2024-02-21T14:27:50;0.77;;;0.55;;
17967;SDS011;9109;48.050;11.696;2024-02-21T14:30:52;1.10;;;0.60;;
17967;SDS011;9109;48.050;11.696;2024-02-21T14:33:57;0.70;;;0.50;;
17967;SDS011;9109;48.050;11.696;2024-02-21T14:36:59;0.50;;;0.50;;
17967;SDS011;9109;48.050;11.696;2024-02-21T14:40:04;0.50;;;0.50;;
17967;SDS011;9109;48.050;11.696;2024-02-21T14:43:06;0.40;;;0.40;;
17967;SDS011;9109;48.050;11.696;2024-02-21T14:46:09;1.10;;;0.60;;
17967;SDS011;9109;48.050;11.696;2024-02-21T14:49:12;2.92;;;0.80;;
17967;SDS011;9109;48.050;11.696;2024-02-21T14:52:14;0.52;;;0.50;;
17967;SDS011;9109;48.050;11.696;2024-02-21T14:55:19;3.60;;;0.50;;
17967;SDS011;9109;48.050;11.696;2024-02-21T14:58:21;2.33;;;0.80;;
17967;SDS011;9109;48.050;11.696;2024-02-21T15:01:24;0.85;;;0.60;;
17967;SDS011;9109;48.050;11.696;2024-02-21T15:04:26;3.80;;;0.60;;
17967;SDS011;9109;48.050;11.696;2024-02-21T15:07:29;1.13;;;0.70;;
17967;SDS011;9109;48.050;11.696;2024-02-21T15:10:34;0.43;;;0.43;;
17967;SDS011;9109;48.050;11.696;2024-02-21T15:13:36;0.73;;;0.50;;
17967;SDS011;9109;48.050;11.696;2024-02-21T15:16:39;0.40;;;0.40;;
17967;SDS011;9109;48.050;11.696;2024-02-21T15:19:41;0.57;;;0.57;;
17967;SDS011;9109;48.050;11.696;2024-02-21T15:22:44;5.25;;;0.50;;
17967;SDS011;9109;48.050;11.696;2024-02-21T15:25:48;0.57;;;0.50;;
17967;SDS011;9109;48.050;11.696;2024-02-21T15:28:50;1.27;;;0.50;;
17967;SDS011;9109;48.050;11.696;2024-02-21T15:31:52;1.83;;;0.60;;
17967;SDS011;9109;48.050;11.696;2024-02-21T15:34:55;1.48;;;0.50;;
17967;SDS011;9109;48.050;11.696;2024-02-21T15:37:57;0.50;;;0.50;;
17967;SDS011;9109;48.050;11.696;2024-02-21T15:41:01;0.63;;;0.50;;
17967;SDS011;9109;48.050;11.696;2024-02-21T15:44:03;2.17;;;0.95;;
17967;SDS011;9109;48.050;11.696;2024-02-21T15:47:06;0.52;;;0.50;;
17967;SDS011;9109;48.050;11.696;2024-02-21T15:50:08;1.02;;;0.60;;
17967;SDS011;9109;48.050;11.696;2024-02-21T15:53:12;1.85;;;0.60;;
17967;SDS011;9109;48.050;11.696;2024-02-21T15:56:16;6.37;;;0.80;;
17967;SDS011;9109;48.050;11.696;2024-02-21T15:59:19;0.60;;;0.57;;
17967;SDS011;9109;48.050;11.696;2024-02-21T16:02:23;1.33;;;0.98;;
17967;SDS011;9109;48.050;11.696;2024-02-21T16:05:25;0.40;;;0.40;;
17967;SDS011;9109;48.050;11.696;2024-02-21T16:08:27;0.60;;;0.60;;
17967;SDS011;9109;48.050;11.696;2024-02-21T16:11:31;1.05;;;0.60;;
17967;SDS011;9109;48.050;11.696;2024-02-21T16:14:33;0.50;;;0.50;;
17967;SDS011;9109;48.050;11.696;2024-02-21T16:17:37;0.60;;;0.60;;
17967;SDS011;9109;48.050;11.696;2024-02-21T16:20:40;1.90;;;1.00;;
17967;SDS011;9109;48.050;11.696;2024-02-21T16:23:42;2.83;;;1.57;;
17967;SDS011;9109;48.050;11.696;2024-02-21T16:26:46;3.28;;;1.70;;
17967;SDS011;9109;48.050;11.696;2024-02-21T16:29:48;3.67;;;1.70;;
17967;SDS011;9109;48.050;11.696;2024-02-21T16:32:51;3.63;;;1.80;;
17967;SDS011;9109;48.050;11.696;2024-02-21T16:35:55;6.33;;;1.93;;
17967;SDS011;9109;48.050;11.696;2024-02-21T16:38:57;2.57;;;1.50;;
17967;SDS011;9109;48.050;11.696;2024-02-21T16:42:06;4.73;;;1.60;;
17967;SDS011;9109;48.050;11.696;2024-02-21T16:45:12;4.05;;;2.33;;
17967;SDS011;9109;48.050;11.696;2024-02-21T16:48:14;7.07;;;2.05;;
17967;SDS011;9109;48.050;11.696;2024-02-21T16:51:17;9.93;;;2.10;;
17967;SDS011;9109;48.050;11.696;2024-02-21T16:54:22;7.20;;;3.03;;
17967;SDS011;9109;48.050;11.696;2024-02-21T16:57:29;5.90;;;2.50;;
17967;SDS011;9109;48.050;11.696;2024-02-21T17:00:31;4.33;;;2.10;;
17967;SDS011;9109;48.050;11.696;2024-02-21T17:03:35;3.73;;;1.70;;
17967;SDS011;9109;48.050;11.696;2024-02-21T17:06:37;3.13;;;1.60;;
17967;SDS011;9109;48.050;11.696;2024-02-21T17:09:40;6.45;;;1.60;;
17967;SDS011;9109;48.050;11.696;2024-02-21T17:12:43;2.90;;;1.40;;
17967;SDS011;9109;48.050;11.696;2024-02-21T17:15:45;4.80;;;1.67;;
17967;SDS011;9109;48.050;11.696;2024-02-21T17:18:48;3.87;;;1.40;;
17967;SDS011;9109;48.050;11.696;2024-02-21T17:21:51;5.83;;;2.50;;
17967;SDS011;9109;48.050;11.696;2024-02-21T17:24:54;4.93;;;1.83;;
17967;SDS011;9109;48.050;11.696;2024-02-21T17:27:58;7.33;;;2.50;;
17967;SDS011;9109;48.050;11.696;2024-02-21T17:31:00;4.67;;;2.67;;
17967;SDS011;9109;48.050;11.696;2024-02-21T17:34:03;5.77;;;2.70;;
17967;SDS011;9109;48.050;11.696;2024-02-21T17:37:05;6.87;;;2.37;;
17967;SDS011;9109;48.050;11.696;2024-02-21T17:40:08;4.93;;;2.20;;
17967;SDS011;9109;48.050;11.696;2024-02-21T17:43:11;4.50;;;1.80;;
17967;SDS011;9109;48.050;11.696;2024-02-21T17:46:14;2.73;;;1.30;;
17967;SDS011;9109;48.050;11.696;2024-02-21T17:49:16;3.87;;;1.20;;
17967;SDS011;9109;48.050;11.696;2024-02-21T17:52:20;2.83;;;1.30;;
17967;SDS011;9109;48.050;11.696;2024-02-21T17:55:22;2.97;;;1.47;;
17967;SDS011;9109;48.050;11.696;2024-02-21T17:58:26;3.73;;;1.63;;
17967;SDS011;9109;48.050;11.696;2024-02-21T18:01:28;3.27;;;1.57;;
17967;SDS011;9109;48.050;11.696;2024-02-21T18:04:31;5.30;;;1.60;;
17967;SDS011;9109;48.050;11.696;2024-02-21T18:07:33;5.10;;;1.80;;
17967;SDS011;9109;48.050;11.696;2024-02-21T18:10:36;3.97;;;1.90;;
17967;SDS011;9109;48.050;11.696;2024-02-21T18:13:40;2.43;;;1.53;;
17967;SDS011;9109;48.050;11.696;2024-02-21T18:16:42;3.97;;;1.93;;
17967;SDS011;9109;48.050;11.696;2024-02-21T18:19:45;4.93;;;2.10;;
17967;SDS011;9109;48.050;11.696;2024-02-21T18:22:47;3.13;;;1.93;;
17967;SDS011;9109;48.050;11.696;2024-02-21T18:25:50;6.87;;;2.30;;
17967;SDS011;9109;48.050;11.696;2024-02-21T18:28:54;9.07;;;2.63;;